Time;durP1;ratioP1;P1;durP2;ratioP2;P2;SDS_P1;SDS_P2;PMS_P1;PMS_P2;Temp;Humidity;BMP_temperature;BMP_pressure;BME280_temperature;BME280_humidity;BME280_pressure;Samples;Min_cycle;Max_cycle;Signal;HPM_P1;HPM_P2
2023/06/24 00:02:08;;;;;;;1.30;1.20;;;27.40;46.00;;;;;;5032919;28;20053;-77
2023/06/24 00:04:34;;;;;;;1.45;1.13;;;27.40;46.10;;;;;;5031676;28;20033;-77
2023/06/24 00:07:01;;;;;;;0.93;0.90;;;27.40;46.10;;;;;;5033075;28;20025;-77
2023/06/24 00:09:27;;;;;;;1.48;1.38;;;27.40;46.10;;;;;;5032887;28;20041;-79
2023/06/24 00:11:54;;;;;;;1.13;1.02;;;27.40;46.10;;;;;;5031863;28;20075;-79
2023/06/24 00:14:21;;;;;;;1.52;1.38;;;27.40;46.10;;;;;;5032801;28;20034;-79
2023/06/24 00:16:51;;;;;;;1.23;1.02;;;27.40;46.10;;;;;;5032723;28;20033;-79
2023/06/24 00:19:19;;;;;;;1.10;1.00;;;27.30;46.00;;;;;;5031809;28;20460;-79
2023/06/24 00:21:44;;;;;;;1.05;0.98;;;27.30;46.10;;;;;;5031331;28;20491;-79
2023/06/24 00:24:10;;;;;;;1.30;1.20;;;27.30;46.70;;;;;;5032644;28;20056;-79
2023/06/24 00:26:36;;;;;;;1.30;1.20;;;27.30;46.10;;;;;;5032664;28;20025;-79
2023/06/24 00:29:01;;;;;;;2.13;1.20;;;27.30;46.00;;;;;;5032659;28;20033;-79
2023/06/24 00:31:28;;;;;;;1.17;1.08;;;27.30;46.10;;;;;;5032539;28;20496;-78
2023/06/24 00:33:54;;;;;;;1.20;1.10;;;27.30;46.10;;;;;;5014686;28;20029;-79
2023/06/24 00:36:20;;;;;;;1.10;1.00;;;27.20;46.00;;;;;;5032798;28;20022;-76
2023/06/24 00:38:46;;;;;;;1.20;1.10;;;27.20;46.00;;;;;;5032276;28;20021;-78
2023/06/24 00:41:11;;;;;;;1.75;0.95;;;27.30;46.10;;;;;;5032427;28;20025;-78
2023/06/24 00:43:37;;;;;;;1.20;1.10;;;27.20;45.80;;;;;;5032278;28;20112;-78
2023/06/24 00:46:03;;;;;;;1.13;1.02;;;27.20;46.00;;;;;;5032265;28;20436;-79
2023/06/24 00:48:31;;;;;;;2.05;1.13;;;27.20;46.10;;;;;;5032256;28;20033;-78
2023/06/24 00:50:58;;;;;;;2.10;1.00;;;27.20;46.20;;;;;;5032141;28;20060;-78
2023/06/24 00:53:24;;;;;;;1.10;1.00;;;27.10;46.10;;;;;;5032105;28;20128;-77
2023/06/24 00:55:52;;;;;;;1.58;1.30;;;27.00;61.70;;;;;;5032080;28;20064;-78
2023/06/24 00:58:20;;;;;;;1.13;0.90;;;27.10;46.00;;;;;;5032010;28;20029;-78
2023/06/24 01:00:56;;;;;;;1.45;0.90;;;27.10;46.00;;;;;;5032051;28;20461;-78
2023/06/24 01:03:22;;;;;;;1.40;1.10;;;27.10;46.10;;;;;;5031894;28;20199;-78
2023/06/24 01:05:48;;;;;;;1.20;1.10;;;27.10;46.00;;;;;;5032259;28;20512;-77
2023/06/24 01:08:15;;;;;;;1.77;1.10;;;27.10;46.00;;;;;;5032427;28;20401;-78
2023/06/24 01:10:41;;;;;;;1.02;0.88;;;27.10;46.00;;;;;;5032580;28;20072;-78
2023/06/24 01:13:07;;;;;;;1.33;1.23;;;27.10;46.10;;;;;;5032420;28;20432;-77
2023/06/24 01:15:34;;;;;;;1.00;1.00;;;27.10;46.00;;;;;;5032266;28;20021;-78
2023/06/24 01:18:16;;;;;;;1.30;1.08;;;27.00;45.90;;;;;;5030586;28;20033;-78
2023/06/24 01:20:47;;;;;;;1.05;1.05;;;27.10;46.10;;;;;;5032019;28;20384;-78
2023/06/24 01:23:34;;;;;;;1.00;0.90;;;27.00;46.00;;;;;;5032021;28;20855;-77
2023/06/24 01:26:41;;;;;;;1.30;1.20;;;27.10;46.10;;;;;;5032054;28;20384;-78
2023/06/24 01:29:30;;;;;;;1.05;0.95;;;27.00;46.00;;;;;;5032636;28;20060;-78
2023/06/24 01:32:02;;;;;;;1.00;1.00;;;27.10;61.90;;;;;;5036244;28;20091;-77
2023/06/24 01:34:46;;;;;;;1.27;1.17;;;27.00;46.10;;;;;;5036099;28;20472;-78
2023/06/24 01:37:26;;;;;;;1.20;1.10;;;27.00;46.00;;;;;;5036105;28;20443;-78
2023/06/24 01:40:10;;;;;;;;;;;26.90;46.00;;;;;;5036478;28;20029;-78
2023/06/24 01:42:42;;;;;;;0.98;0.98;;;26.90;45.90;;;;;;5017929;28;20413;-77
2023/06/24 01:45:12;;;;;;;0.85;0.85;;;26.90;45.90;;;;;;5035723;28;20025;-78
2023/06/24 01:47:38;;;;;;;;;;;26.90;46.10;;;;;;5036195;28;20037;-78
2023/06/24 01:50:06;;;;;;;1.30;1.20;;;26.90;45.90;;;;;;5035753;28;20028;-77
2023/06/24 01:52:34;;;;;;;1.73;1.20;;;26.90;46.10;;;;;;5035953;28;20026;-78
2023/06/24 01:55:01;;;;;;;1.10;1.00;;;26.90;46.10;;;;;;5035805;28;20033;-78
2023/06/24 01:57:28;;;;;;;0.85;0.70;;;26.80;46.10;;;;;;5035551;28;20205;-77
2023/06/24 01:59:56;;;;;;;0.77;0.77;;;26.90;46.10;;;;;;5035485;28;20053;-77
2023/06/24 02:02:23;;;;;;;1.00;0.98;;;26.80;46.00;;;;;;5034915;28;20143;-77
2023/06/24 02:04:51;;;;;;;1.10;1.00;;;26.80;46.20;;;;;;5035345;28;20018;-77
2023/06/24 02:07:18;;;;;;;1.65;1.13;;;26.80;46.00;;;;;;5035300;28;20026;-77
2023/06/24 02:09:45;;;;;;;1.35;1.02;;;26.80;46.00;;;;;;5035477;28;20341;-78
2023/06/24 02:12:12;;;;;;;1.20;1.10;;;26.70;46.60;;;;;;5035246;28;20029;-77
2023/06/24 02:14:39;;;;;;;0.90;0.90;;;26.70;46.10;;;;;;5035288;28;20037;-78
2023/06/24 02:17:07;;;;;;;1.30;0.90;;;26.70;46.10;;;;;;5035321;28;20022;-78
2023/06/24 02:19:34;;;;;;;1.35;1.27;;;26.70;46.10;;;;;;5035202;28;20449;-78
2023/06/24 02:22:02;;;;;;;1.08;1.00;;;26.70;46.00;;;;;;5035091;28;20388;-78
2023/06/24 02:24:29;;;;;;;1.05;0.93;;;26.70;46.20;;;;;;5035067;28;20033;-77
2023/06/24 02:26:58;;;;;;;0.98;0.88;;;26.70;46.00;;;;;;5035065;28;20488;-78
2023/06/24 02:29:27;;;;;;;1.10;0.85;;;26.70;46.20;;;;;;5034826;28;20469;-78
2023/06/24 02:31:54;;;;;;;1.00;0.90;;;26.60;46.00;;;;;;5034931;28;20021;-78
2023/06/24 02:34:20;;;;;;;3.88;1.00;;;26.60;46.20;;;;;;5016983;28;20829;-78
2023/06/24 02:36:45;;;;;;;1.00;0.90;;;26.60;46.20;;;;;;5035115;28;20188;-77
2023/06/24 02:39:11;;;;;;;1.58;1.25;;;26.60;46.10;;;;;;5034673;28;20539;-78
2023/06/24 02:41:37;;;;;;;1.35;1.25;;;26.60;46.30;;;;;;5033515;28;20030;-77
2023/06/24 02:44:02;;;;;;;1.15;0.93;;;26.60;46.00;;;;;;5034710;28;20026;-77
2023/06/24 02:46:30;;;;;;;0.95;0.95;;;26.60;46.20;;;;;;5034634;28;20036;-77
2023/06/24 02:48:57;;;;;;;1.58;1.08;;;26.60;46.30;;;;;;5034857;28;20123;-78
2023/06/24 02:51:24;;;;;;;1.27;1.17;;;26.50;46.00;;;;;;5033256;28;20029;-77
2023/06/24 02:53:50;;;;;;;1.15;1.05;;;26.50;46.20;;;;;;5033157;28;20037;-78
2023/06/24 02:56:20;;;;;;;1.05;0.98;;;;;;;;;;5034401;28;20116;-77
2023/06/24 02:58:48;;;;;;;1.30;1.10;;;26.40;45.70;;;;;;5034347;28;20491;-77
2023/06/24 03:01:15;;;;;;;1.40;1.20;;;26.40;61.90;;;;;;5034198;28;20349;-77
2023/06/24 03:03:42;;;;;;;1.20;1.10;;;26.40;46.20;;;;;;5034172;28;20411;-78
2023/06/24 03:06:12;;;;;;;0.88;0.88;;;26.40;46.20;;;;;;5034459;28;20093;-77
2023/06/24 03:08:39;;;;;;;1.50;1.10;;;26.40;46.30;;;;;;5034253;28;20395;-78
2023/06/24 03:11:05;;;;;;;1.02;1.00;;;26.40;46.30;;;;;;5034560;28;20028;-78
2023/06/24 03:13:31;;;;;;;1.35;1.23;;;26.40;46.10;;;;;;5033870;28;20087;-78
2023/06/24 03:15:57;;;;;;;1.00;0.90;;;26.40;46.10;;;;;;5034243;28;20064;-78
2023/06/24 03:18:23;;;;;;;1.00;1.00;;;26.30;46.40;;;;;;5034245;28;20021;-78
2023/06/24 03:20:49;;;;;;;1.10;1.00;;;26.30;46.30;;;;;;5034053;28;20025;-78
2023/06/24 03:23:15;;;;;;;0.85;0.85;;;26.40;46.30;;;;;;5034195;28;20021;-77
2023/06/24 03:25:41;;;;;;;0.90;0.90;;;26.30;46.10;;;;;;5033783;28;20022;-78
2023/06/24 03:28:08;;;;;;;2.08;0.93;;;26.30;46.10;;;;;;5033868;28;20113;-78
2023/06/24 03:30:34;;;;;;;1.00;1.00;;;26.30;46.70;;;;;;5033602;28;20021;-77
2023/06/24 03:32:59;;;;;;;1.27;1.17;;;26.30;61.90;;;;;;5033589;28;20058;-79
2023/06/24 03:35:25;;;;;;;1.10;0.88;;;26.30;46.10;;;;;;5033645;28;20476;-79
2023/06/24 03:37:51;;;;;;;1.40;0.95;;;26.30;46.20;;;;;;5033696;28;20115;-78
2023/06/24 03:40:17;;;;;;;1.15;1.05;;;26.30;46.40;;;;;;5033708;28;20021;-79
2023/06/24 03:42:42;;;;;;;1.55;0.90;;;26.30;46.20;;;;;;5033507;28;20087;-79
2023/06/24 03:45:08;;;;;;;1.17;1.08;;;26.30;46.50;;;;;;5033553;28;20484;-79
2023/06/24 03:47:34;;;;;;;1.25;1.13;;;26.20;46.20;;;;;;5033264;28;20396;-79
2023/06/24 03:49:59;;;;;;;1.17;1.08;;;26.30;46.30;;;;;;5033473;28;20040;-79
2023/06/24 03:52:25;;;;;;;1.25;1.08;;;26.20;46.90;;;;;;5033120;28;20500;-79
2023/06/24 03:54:51;;;;;;;1.15;1.05;;;26.20;46.20;;;;;;5033095;28;20120;-79
2023/06/24 03:57:17;;;;;;;1.35;1.25;;;26.20;46.50;;;;;;5033355;28;20029;-78
2023/06/24 03:59:42;;;;;;;1.70;1.10;;;26.20;46.50;;;;;;5033069;28;20033;-78
2023/06/24 04:02:08;;;;;;;1.25;0.90;;;26.20;46.50;;;;;;5032858;28;20037;-77
2023/06/24 04:04:35;;;;;;;1.33;1.05;;;26.20;46.50;;;;;;5032969;28;20033;-77
2023/06/24 04:07:01;;;;;;;1.20;1.10;;;;;;;;;;5033038;28;20029;-79
2023/06/24 04:09:26;;;;;;;1.10;1.00;;;26.20;46.00;;;;;;5033043;28;20033;-78
2023/06/24 04:11:52;;;;;;;0.82;0.82;;;26.10;46.40;;;;;;5032857;28;20018;-80
2023/06/24 04:14:18;;;;;;;1.17;1.10;;;26.10;46.20;;;;;;5033162;28;20048;-80
2023/06/24 04:16:44;;;;;;;0.98;0.95;;;26.10;46.60;;;;;;5032759;28;20479;-78
2023/06/24 04:19:09;;;;;;;1.20;1.10;;;26.10;46.60;;;;;;5032772;28;20068;-78
2023/06/24 04:21:35;;;;;;;2.17;0.90;;;26.10;46.60;;;;;;5032769;28;20026;-78
2023/06/24 04:24:00;;;;;;;1.33;1.23;;;26.10;46.50;;;;;;5032746;28;20029;-78
2023/06/24 04:26:26;;;;;;;1.40;0.85;;;26.10;46.50;;;;;;5032657;28;20376;-80
2023/06/24 04:28:52;;;;;;;1.13;0.90;;;26.10;46.30;;;;;;5032462;28;20128;-79
2023/06/24 04:31:17;;;;;;;1.45;1.10;;;26.00;46.40;;;;;;5032584;28;20447;-79
2023/06/24 04:33:43;;;;;;;1.17;1.08;;;26.10;46.40;;;;;;5032481;28;20099;-79
2023/06/24 04:36:09;;;;;;;1.00;0.95;;;26.10;46.60;;;;;;5032424;28;20033;-79
2023/06/24 04:38:34;;;;;;;1.15;1.00;;;26.10;46.60;;;;;;5032301;28;20056;-79
2023/06/24 04:41:00;;;;;;;1.98;1.20;;;26.00;46.50;;;;;;5032298;28;20064;-80
2023/06/24 04:43:27;;;;;;;0.90;0.90;;;26.00;46.40;;;;;;5032212;28;20028;-79
2023/06/24 04:45:55;;;;;;;1.27;1.17;;;26.00;46.40;;;;;;5032110;28;20028;-79
2023/06/24 04:48:22;;;;;;;1.00;0.95;;;26.00;46.70;;;;;;5032242;28;20365;-79
2023/06/24 04:50:48;;;;;;;1.60;1.25;;;26.00;46.70;;;;;;5032203;28;20028;-79
2023/06/24 04:53:14;;;;;;;1.60;1.40;;;25.90;62.70;;;;;;5032205;28;20045;-79
2023/06/24 04:55:40;;;;;;;1.20;1.10;;;25.90;46.70;;;;;;5032172;28;20018;-77
2023/06/24 04:58:05;;;;;;;1.98;1.17;;;26.00;46.70;;;;;;5032048;28;20041;-78
2023/06/24 05:00:31;;;;;;;1.40;1.30;;;26.00;46.60;;;;;;5032127;28;20049;-78
2023/06/24 05:02:57;;;;;;;1.83;1.27;;;26.00;46.50;;;;;;5031790;28;20060;-79
2023/06/24 05:05:23;;;;;;;1.00;1.00;;;25.90;46.70;;;;;;5031414;28;20530;-80
2023/06/24 05:07:48;;;;;;;2.08;0.90;;;25.90;46.60;;;;;;5032078;28;20483;-83
2023/06/24 05:10:14;;;;;;;1.48;1.10;;;25.90;47.40;;;;;;5036359;28;20029;-79
2023/06/24 05:12:40;;;;;;;1.05;1.00;;;25.90;46.50;;;;;;5032710;28;20031;-78
2023/06/24 05:15:06;;;;;;;1.10;1.00;;;25.90;46.60;;;;;;5031890;28;20072;-77
2023/06/24 05:17:32;;;;;;;1.10;1.00;;;25.90;46.60;;;;;;5031905;28;20040;-78
2023/06/24 05:19:58;;;;;;;1.15;1.05;;;25.90;46.70;;;;;;5031993;28;20029;-77
2023/06/24 05:22:24;;;;;;;1.30;1.20;;;25.90;46.80;;;;;;5032157;28;20022;-76
2023/06/24 05:24:52;;;;;;;1.55;1.40;;;25.90;46.60;;;;;;5031723;28;20025;-76
2023/06/24 05:27:20;;;;;;;1.38;1.27;;;25.90;46.80;;;;;;5031592;28;20468;-76
2023/06/24 05:29:46;;;;;;;1.40;1.30;;;25.80;46.60;;;;;;5032086;28;20140;-78
2023/06/24 05:32:12;;;;;;;1.30;1.20;;;25.80;46.70;;;;;;5031958;28;20090;-77
2023/06/24 05:34:38;;;;;;;1.27;1.17;;;26.70;47.50;;;;;;5031780;28;20033;-78
2023/06/24 05:37:05;;;;;;;1.38;1.20;;;25.80;46.80;;;;;;5031705;28;20021;-77
2023/06/24 05:39:31;;;;;;;1.23;1.13;;;25.80;46.80;;;;;;5031941;28;20104;-77
2023/06/24 05:41:57;;;;;;;1.70;1.25;;;25.80;47.00;;;;;;5031582;28;20032;-77
2023/06/24 05:44:23;;;;;;;1.35;1.20;;;25.80;47.00;;;;;;5031496;28;20037;-77
2023/06/24 05:46:49;;;;;;;1.20;1.08;;;25.80;46.80;;;;;;5031960;28;20025;-79
2023/06/24 05:49:15;;;;;;;1.38;1.20;;;25.80;46.90;;;;;;5030855;28;20080;-79
2023/06/24 05:51:41;;;;;;;2.30;1.20;;;25.80;46.80;;;;;;5031902;28;20041;-79
2023/06/24 05:54:08;;;;;;;1.30;1.20;;;25.80;47.00;;;;;;5031781;28;20044;-78
2023/06/24 05:56:34;;;;;;;2.78;1.38;;;25.80;47.10;;;;;;5031738;28;20052;-79
2023/06/24 05:59:00;;;;;;;1.30;1.20;;;25.80;47.20;;;;;;5031652;28;20029;-78
2023/06/24 06:01:27;;;;;;;2.05;1.30;;;26.00;63.40;;;;;;5031637;28;20025;-79
2023/06/24 06:03:53;;;;;;;1.27;1.02;;;25.90;47.10;;;;;;5031424;28;20555;-78
2023/06/24 06:06:19;;;;;;;3.00;1.17;;;25.80;47.00;;;;;;5031684;28;20041;-79
2023/06/24 06:08:45;;;;;;;1.60;1.33;;;25.90;47.20;;;;;;5031585;28;20021;-80
2023/06/24 06:11:11;;;;;;;5.05;1.30;;;25.90;47.10;;;;;;5031636;28;20017;-78
2023/06/24 06:13:37;;;;;;;1.58;1.33;;;25.80;47.10;;;;;;5031505;28;20120;-79
2023/06/24 06:16:04;;;;;;;1.23;1.10;;;25.90;47.20;;;;;;5033843;28;20025;-79
2023/06/24 06:18:30;;;;;;;1.50;1.20;;;25.80;47.10;;;;;;5035701;28;20017;-79
2023/06/24 06:20:55;;;;;;;1.30;1.00;;;25.80;47.20;;;;;;5035511;28;20503;-80
2023/06/24 06:23:21;;;;;;;2.50;1.30;;;25.80;47.20;;;;;;5035184;28;20148;-82
2023/06/24 06:25:47;;;;;;;1.65;1.55;;;25.80;47.10;;;;;;5017520;28;20029;-80
2023/06/24 06:28:12;;;;;;;1.98;1.30;;;25.80;47.40;;;;;;5038297;28;20025;-81
2023/06/24 06:30:38;;;;;;;4.40;1.25;;;25.80;47.30;;;;;;5018246;28;20022;-82
2023/06/24 06:33:04;;;;;;;1.20;1.08;;;25.80;47.40;;;;;;5034929;28;20025;-82
2023/06/24 06:35:30;;;;;;;1.52;1.40;;;25.80;47.30;;;;;;5035241;28;20034;-83
2023/06/24 06:37:57;;;;;;;1.48;1.38;;;25.80;47.10;;;;;;5034908;28;20052;-80
2023/06/24 06:40:24;;;;;;;1.80;1.30;;;25.80;47.30;;;;;;5034916;28;20037;-81
2023/06/24 06:42:50;;;;;;;1.88;1.35;;;25.80;47.30;;;;;;5034992;28;20026;-80
2023/06/24 06:45:15;;;;;;;2.28;1.27;;;25.80;47.40;;;;;;5034748;28;20040;-79
2023/06/24 06:47:41;;;;;;;1.58;1.48;;;25.80;47.40;;;;;;5034671;28;20439;-79
2023/06/24 06:50:07;;;;;;;1.25;1.15;;;25.80;47.40;;;;;;5016917;28;20137;-79
2023/06/24 06:52:33;;;;;;;1.63;1.30;;;25.80;47.50;;;;;;5034681;28;20056;-78
2023/06/24 06:54:59;;;;;;;1.70;1.60;;;25.80;47.50;;;;;;5034812;28;20040;-79
2023/06/24 06:57:25;;;;;;;2.40;1.33;;;25.80;47.50;;;;;;5034288;28;20030;-78
2023/06/24 06:59:51;;;;;;;1.40;1.20;;;25.80;47.50;;;;;;5034361;28;20450;-78
2023/06/24 07:02:17;;;;;;;1.88;1.67;;;25.80;47.40;;;;;;5034141;28;20045;-77
2023/06/24 07:04:43;;;;;;;1.35;1.00;;;25.80;47.70;;;;;;5034415;28;20025;-77
2023/06/24 07:07:09;;;;;;;2.28;1.50;;;25.80;47.50;;;;;;5034225;28;20041;-78
2023/06/24 07:09:35;;;;;;;1.52;1.42;;;25.80;47.40;;;;;;5034320;28;20056;-79
2023/06/24 07:12:01;;;;;;;2.83;1.90;;;25.80;47.60;;;;;;5034121;28;20060;-80
2023/06/24 07:14:27;;;;;;;1.63;1.45;;;25.80;47.50;;;;;;5033895;28;20059;-77
2023/06/24 07:16:52;;;;;;;1.60;1.50;;;25.80;47.70;;;;;;5034205;28;20017;-78
2023/06/24 07:19:18;;;;;;;1.50;1.40;;;25.70;47.40;;;;;;5034031;28;20084;-78
2023/06/24 07:21:44;;;;;;;2.70;1.60;;;25.80;47.70;;;;;;5034049;28;20104;-79
2023/06/24 07:24:09;;;;;;;1.40;1.30;;;25.80;47.70;;;;;;5032999;28;20425;-79
2023/06/24 07:26:35;;;;;;;2.10;1.60;;;25.80;47.60;;;;;;5033732;28;20063;-79
2023/06/24 07:29:01;;;;;;;2.40;1.75;;;25.80;47.70;;;;;;5033788;28;20444;-78
2023/06/24 07:31:26;;;;;;;2.15;1.23;;;25.80;47.80;;;;;;5033700;28;20376;-77
2023/06/24 07:33:52;;;;;;;1.70;1.52;;;25.80;47.80;;;;;;5033743;28;20492;-78
2023/06/24 07:36:18;;;;;;;1.55;1.30;;;25.80;47.70;;;;;;5033826;28;20044;-76
2023/06/24 07:38:44;;;;;;;1.80;1.67;;;25.80;47.80;;;;;;5033682;28;20040;-79
2023/06/24 07:41:09;;;;;;;6.57;1.95;;;25.90;47.90;;;;;;5033974;28;20403;-77
2023/06/24 07:43:35;;;;;;;3.00;1.63;;;25.90;47.90;;;;;;5033469;28;20032;-80
2023/06/24 07:46:02;;;;;;;3.53;1.40;;;25.90;48.20;;;;;;5033416;28;20349;-79
2023/06/24 07:48:27;;;;;;;3.40;1.50;;;25.90;48.20;;;;;;5033151;28;20029;-80
2023/06/24 07:50:53;;;;;;;2.83;2.03;;;25.90;48.20;;;;;;5033360;28;20036;-79
2023/06/24 07:53:19;;;;;;;4.10;1.60;;;25.90;48.20;;;;;;5033542;28;20068;-81
2023/06/24 07:55:45;;;;;;;6.63;2.00;;;25.90;48.30;;;;;;5033415;28;20026;-81
2023/06/24 07:58:11;;;;;;;3.78;1.75;;;25.90;48.40;;;;;;5033673;28;20538;-81
2023/06/24 08:00:37;;;;;;;4.32;1.90;;;25.90;48.40;;;;;;5033092;28;20068;-81
2023/06/24 08:03:03;;;;;;;1.83;1.55;;;25.90;48.60;;;;;;5032819;28;20056;-80
2023/06/24 08:05:29;;;;;;;2.40;2.00;;;25.90;48.60;;;;;;5033016;28;20036;-81
2023/06/24 08:07:55;;;;;;;4.60;2.20;;;25.90;49.40;;;;;;5033021;28;20101;-81
2023/06/24 08:10:20;;;;;;;3.90;2.30;;;25.90;48.80;;;;;;5031814;28;20104;-81
2023/06/24 08:12:46;;;;;;;3.15;1.83;;;25.90;48.90;;;;;;5032739;28;20022;-80
2023/06/24 08:15:12;;;;;;;3.20;2.38;;;25.90;49.00;;;;;;5031546;28;20033;-79
2023/06/24 08:17:38;;;;;;;4.90;2.65;;;25.90;49.10;;;;;;5032795;28;20037;-80
2023/06/24 08:20:05;;;;;;;3.00;2.70;;;26.00;49.40;;;;;;5032626;28;20032;-78
2023/06/24 08:22:31;;;;;;;2.53;2.10;;;26.00;49.50;;;;;;5032782;28;20026;-79
2023/06/24 08:24:58;;;;;;;5.57;2.42;;;26.00;49.50;;;;;;5034623;28;20049;-81
2023/06/24 08:27:24;;;;;;;3.25;2.50;;;26.10;49.50;;;;;;5032957;28;20421;-81
2023/06/24 08:29:50;;;;;;;3.92;2.35;;;26.30;65.80;;;;;;5032676;28;20022;-81
2023/06/24 08:32:17;;;;;;;3.85;2.67;;;26.10;49.60;;;;;;5032883;28;20083;-83
2023/06/24 08:34:43;;;;;;;4.53;2.70;;;26.20;49.60;;;;;;5032442;28;20026;-81
2023/06/24 08:37:09;;;;;;;3.80;2.40;;;26.20;49.70;;;;;;5032621;28;20153;-81
2023/06/24 08:39:36;;;;;;;4.00;2.30;;;26.20;49.60;;;;;;5031639;28;20492;-82
2023/06/24 08:42:03;;;;;;;4.88;1.98;;;27.00;50.80;;;;;;5032425;28;20100;-83
2023/06/24 08:44:29;;;;;;;4.07;2.33;;;26.30;49.60;;;;;;5032486;28;20109;-78
2023/06/24 08:46:56;;;;;;;3.80;2.53;;;26.00;66.00;;;;;;5032398;28;20041;-78
2023/06/24 08:49:22;;;;;;;3.17;2.15;;;26.30;50.70;;;;;;5032382;28;20527;-77
2023/06/24 08:51:54;;;;;;;4.53;2.20;;;26.30;49.90;;;;;;5032335;28;20033;-76
2023/06/24 08:54:22;;;;;;;3.63;2.40;;;26.40;50.00;;;;;;5032050;28;20480;-77
2023/06/24 08:56:49;;;;;;;3.30;2.00;;;26.40;50.20;;;;;;5032388;28;20021;-78
2023/06/24 08:59:19;;;;;;;3.22;2.20;;;26.40;50.50;;;;;;5032176;28;20079;-78
2023/06/24 09:01:49;;;;;;;;;;;26.50;50.50;;;;;;5032623;28;20021;-78
2023/06/24 09:04:15;;;;;;;;;;;26.50;50.90;;;;;;5032538;28;19925;-80
2023/06/24 09:06:41;;;;;;;2.42;2.22;;;26.50;51.30;;;;;;5031745;28;19992;-79
2023/06/24 09:09:22;;;;;;;4.70;2.50;;;26.50;50.80;;;;;;5032189;28;20037;-79
2023/06/24 09:11:55;;;;;;;2.30;2.00;;;26.60;51.60;;;;;;5032184;28;20087;-79
2023/06/24 09:14:23;;;;;;;3.15;2.50;;;26.60;51.40;;;;;;5031819;28;20068;-79
2023/06/24 09:16:58;;;;;;;3.35;2.45;;;26.60;51.50;;;;;;5032177;28;20429;-79
2023/06/24 09:19:29;;;;;;;3.30;2.63;;;26.70;51.90;;;;;;5032076;28;20055;-79
2023/06/24 09:22:05;;;;;;;2.95;2.30;;;26.70;51.90;;;;;;5032062;28;20376;-79
2023/06/24 09:24:36;;;;;;;3.20;2.72;;;26.70;52.00;;;;;;5032061;28;20022;-79
2023/06/24 09:27:03;;;;;;;3.17;2.50;;;26.80;51.50;;;;;;5031748;28;20022;-78
2023/06/24 09:29:32;;;;;;;3.63;2.85;;;27.00;51.50;;;;;;5031894;28;20026;-78
2023/06/24 09:31:59;;;;;;;3.80;2.40;;;27.10;51.40;;;;;;5031673;28;20032;-77
2023/06/24 09:34:28;;;;;;;3.38;2.50;;;27.10;51.40;;;;;;5031780;28;20037;-78
2023/06/24 09:36:55;;;;;;;3.67;2.65;;;27.20;51.40;;;;;;5031397;28;20021;-78
2023/06/24 09:39:28;;;;;;;3.58;2.30;;;27.20;51.40;;;;;;5031663;28;20136;-78
2023/06/24 09:41:58;;;;;;;5.18;2.55;;;27.30;51.50;;;;;;5031472;28;20101;-78
2023/06/24 09:44:25;;;;;;;;;;;27.40;51.50;;;;;;5032097;28;20028;-78
2023/06/24 09:46:52;;;;;;;3.17;2.40;;;27.40;50.50;;;;;;5031475;28;19912;-78
2023/06/24 09:49:18;;;;;;;3.42;2.40;;;27.40;51.30;;;;;;5031674;28;20399;-78
2023/06/24 09:51:55;;;;;;;3.50;2.13;;;27.50;51.30;;;;;;5034765;28;20079;-78
2023/06/24 09:54:24;;;;;;;3.03;2.38;;;27.60;51.30;;;;;;5035196;28;20083;-78
2023/06/24 09:56:50;;;;;;;3.38;2.58;;;27.70;51.40;;;;;;5035570;28;20017;-78
2023/06/24 09:59:22;;;;;;;2.72;2.28;;;27.70;51.30;;;;;;5035291;28;20030;-77
2023/06/24 10:01:49;;;;;;;3.78;2.50;;;27.80;51.50;;;;;;5035019;28;20032;-77
2023/06/24 10:04:17;;;;;;;3.97;2.60;;;27.80;51.30;;;;;;5035307;28;20453;-78
2023/06/24 10:06:43;;;;;;;2.70;2.50;;;27.90;51.30;;;;;;5035297;28;20014;-78
2023/06/24 10:09:10;;;;;;;4.53;2.75;;;27.90;51.30;;;;;;5034830;28;20491;-78
2023/06/24 10:11:36;;;;;;;3.28;2.72;;;28.00;51.30;;;;;;5035283;28;20053;-76
2023/06/24 10:14:02;;;;;;;3.15;2.85;;;28.10;51.30;;;;;;5035101;28;20033;-77
2023/06/24 10:16:28;;;;;;;4.05;2.35;;;28.10;51.20;;;;;;5035136;28;20392;-78
2023/06/24 10:19:01;;;;;;;4.22;2.63;;;28.10;51.20;;;;;;5034802;28;20025;-78
2023/06/24 10:21:49;;;;;;;5.38;2.80;;;28.20;51.20;;;;;;5034954;28;20029;-79
2023/06/24 10:24:31;;;;;;;4.35;2.45;;;28.50;51.30;;;;;;5034930;28;20332;-77
2023/06/24 10:27:24;;;;;;;2.95;2.58;;;28.30;51.20;;;;;;5034978;28;20044;-77
2023/06/24 10:29:52;;;;;;;3.50;2.63;;;28.40;51.00;;;;;;5034486;28;20026;-78
2023/06/24 10:32:19;;;;;;;3.30;2.75;;;28.50;51.10;;;;;;5034555;28;20057;-77
2023/06/24 10:34:46;;;;;;;4.30;2.85;;;28.50;51.00;;;;;;5034357;28;20046;-77
2023/06/24 10:37:19;;;;;;;3.50;2.67;;;28.60;51.00;;;;;;5034389;28;20101;-78
2023/06/24 10:39:56;;;;;;;3.70;2.70;;;28.60;51.00;;;;;;5034561;28;20108;-78
2023/06/24 10:42:34;;;;;;;3.78;2.67;;;28.70;50.90;;;;;;5034369;28;20056;-80
2023/06/24 10:45:12;;;;;;;2.97;2.60;;;28.80;50.90;;;;;;5034565;28;20056;-80
2023/06/24 10:47:39;;;;;;;3.22;2.63;;;28.80;50.80;;;;;;5034134;28;20037;-80
2023/06/24 10:50:05;;;;;;;2.80;2.50;;;28.90;50.70;;;;;;5034483;28;20021;-80
2023/06/24 10:52:31;;;;;;;3.30;2.50;;;28.90;50.50;;;;;;5034375;28;20042;-81
2023/06/24 10:54:57;;;;;;;3.63;2.80;;;29.00;50.60;;;;;;5034547;28;20036;-81
2023/06/24 10:57:27;;;;;;;3.15;2.80;;;29.10;50.50;;;;;;5034346;28;20549;-80
2023/06/24 10:59:55;;;;;;;4.03;2.70;;;29.10;50.60;;;;;;5034374;28;20022;-81
2023/06/24 11:02:22;;;;;;;6.43;2.55;;;29.20;50.50;;;;;;5033056;28;20034;-80
2023/06/24 11:04:48;;;;;;;3.70;2.60;;;29.20;50.20;;;;;;5034174;28;20065;-80
2023/06/24 11:07:14;;;;;;;3.80;2.50;;;29.30;50.10;;;;;;5034157;28;20033;-81
2023/06/24 11:09:42;;;;;;;2.88;2.53;;;29.30;50.20;;;;;;5034208;28;20444;-79
2023/06/24 11:12:11;;;;;;;2.72;2.50;;;29.40;50.00;;;;;;5034149;28;20017;-79
2023/06/24 11:14:38;;;;;;;2.70;2.50;;;29.50;49.80;;;;;;5033910;28;20105;-75
2023/06/24 11:17:04;;;;;;;2.53;2.33;;;29.50;49.80;;;;;;5033742;28;20025;-76
2023/06/24 11:19:35;;;;;;;2.55;2.33;;;29.60;50.00;;;;;;5033860;28;20089;-76
2023/06/24 11:22:02;;;;;;;3.70;2.40;;;29.60;49.60;;;;;;5033998;28;20079;-76
2023/06/24 11:24:28;;;;;;;4.32;2.78;;;29.70;56.40;;;;;;5033804;28;20022;-76
2023/06/24 11:26:55;;;;;;;2.70;2.28;;;29.70;49.70;;;;;;5033889;28;20030;-76
2023/06/24 11:29:21;;;;;;;2.53;2.30;;;29.90;49.60;;;;;;5033901;28;20032;-77
2023/06/24 11:31:46;;;;;;;2.55;2.35;;;29.90;49.40;;;;;;5033764;28;20108;-76
2023/06/24 11:34:12;;;;;;;2.53;2.28;;;30.00;49.30;;;;;;5033702;28;20436;-76
2023/06/24 11:36:38;;;;;;;2.53;2.35;;;30.10;49.20;;;;;;5033647;28;20045;-77
2023/06/24 11:39:04;;;;;;;4.18;2.40;;;30.10;49.10;;;;;;5033846;28;20045;-77
2023/06/24 11:41:29;;;;;;;2.95;2.33;;;30.20;49.10;;;;;;5033422;28;20029;-77
2023/06/24 11:43:58;;;;;;;2.03;1.92;;;30.30;49.00;;;;;;5033563;28;20147;-77
2023/06/24 11:46:33;;;;;;;2.10;1.90;;;30.30;49.00;;;;;;5033656;28;20017;-77
2023/06/24 11:49:06;;;;;;;2.40;2.20;;;30.40;49.00;;;;;;5033323;28;20607;-77
2023/06/24 11:51:32;;;;;;;2.05;1.95;;;30.50;48.90;;;;;;5033400;28;20029;-77
2023/06/24 11:54:03;;;;;;;2.33;2.13;;;30.50;49.00;;;;;;5033240;28;20048;-77
2023/06/24 11:56:39;;;;;;;1.85;1.73;;;30.50;48.90;;;;;;5033440;28;20096;-77
2023/06/24 11:59:06;;;;;;;2.10;1.90;;;30.60;48.70;;;;;;5015594;28;20025;-77
2023/06/24 12:01:32;;;;;;;2.22;2.03;;;30.70;48.70;;;;;;5033093;28;20025;-77
2023/06/24 12:04:01;;;;;;;2.67;2.00;;;30.70;48.70;;;;;;5032933;28;20755;-77
2023/06/24 12:06:26;;;;;;;2.75;2.40;;;30.70;48.70;;;;;;5033068;28;20126;-77
2023/06/24 12:08:52;;;;;;;2.45;2.00;;;30.80;48.60;;;;;;5032870;28;20476;-77
2023/06/24 12:11:18;;;;;;;2.55;2.30;;;30.90;48.60;;;;;;5032830;28;20079;-77
2023/06/24 12:13:43;;;;;;;2.17;1.98;;;30.90;48.60;;;;;;5032735;28;20025;-77
2023/06/24 12:16:09;;;;;;;1.85;1.65;;;30.90;48.40;;;;;;5032828;28;20026;-77
2023/06/24 12:18:35;;;;;;;2.90;2.53;;;31.00;48.50;;;;;;5032794;28;20035;-77
2023/06/24 12:21:00;;;;;;;2.22;1.88;;;31.10;48.50;;;;;;5032727;28;20026;-76
2023/06/24 12:23:26;;;;;;;2.10;1.90;;;31.10;48.30;;;;;;5032733;28;20036;-76
2023/06/24 12:25:51;;;;;;;2.63;2.13;;;31.10;48.10;;;;;;5032735;28;20022;-76
2023/06/24 12:28:17;;;;;;;2.95;2.38;;;31.20;48.20;;;;;;5014868;28;20029;-77
2023/06/24 12:30:43;;;;;;;3.13;2.03;;;31.20;48.10;;;;;;5032757;28;20056;-76
2023/06/24 12:33:08;;;;;;;1.95;1.85;;;31.30;48.00;;;;;;5032865;28;20028;-76
2023/06/24 12:35:34;;;;;;;5.45;2.28;;;31.30;47.90;;;;;;5032690;28;20032;-76
2023/06/24 12:38:00;;;;;;;2.05;1.90;;;31.40;47.80;;;;;;5032560;28;20021;-76
2023/06/24 12:40:26;;;;;;;1.75;1.65;;;31.50;47.70;;;;;;5032744;28;20427;-76
2023/06/24 12:42:52;;;;;;;3.28;2.20;;;31.50;48.40;;;;;;5031236;28;20024;-76
2023/06/24 12:45:18;;;;;;;2.22;1.92;;;31.50;47.70;;;;;;5032715;28;20180;-76
2023/06/24 12:47:45;;;;;;;2.30;2.10;;;31.50;47.70;;;;;;5032427;28;20030;-76
2023/06/24 12:50:11;;;;;;;1.63;1.50;;;31.60;48.30;;;;;;5032130;28;20018;-76